Time;durP1;ratioP1;P1;durP2;ratioP2;P2;SDS_P1;SDS_P2;PMS_P1;PMS_P2;Temp;Humidity;BMP_temperature;BMP_pressure;BME280_temperature;BME280_humidity;BME280_pressure;Samples;Min_cycle;Max_cycle;Signal;HPM_P1;HPM_P2
2022/01/18 00:00:54;;;;;;;46.38;5.72;;;;;;;;;;5102126;27;20041;-81
2022/01/18 00:03:20;;;;;;;51.80;6.82;;;;;;;;;;5095419;27;20114;-81
2022/01/18 00:05:49;;;;;;;65.90;5.90;;;;;;;;;;5103531;27;20046;-81
2022/01/18 00:08:17;;;;;;;66.93;6.60;;;4.90;1.00;;;;;;5098288;27;20043;-81
2022/01/18 00:10:43;;;;;;;49.42;6.18;;;;;;;;;;5092990;27;20487;-78
2022/01/18 00:13:35;;;;;;;72.00;6.65;;;;;;;;;;5099533;27;20606;-79
2022/01/18 00:16:10;;;;;;;65.90;6.40;;;;;;;;;;5097687;27;20511;-79
2022/01/18 00:18:38;;;;;;;61.50;6.55;;;4.80;1.00;;;;;;5083189;27;20538;-79
2022/01/18 00:23:34;;;;;;;66.70;6.82;;;4.80;1.00;;;;;;5117510;27;20039;-79
2022/01/18 00:26:00;;;;;;;70.78;7.35;;;;;;;;;;5098740;27;20045;-79
2022/01/18 00:28:28;;;;;;;67.20;6.60;;;;;;;;;;5078790;27;20086;-79
2022/01/18 00:34:06;;;;;;;50.13;5.45;;;;;;;;;;5042151;28;20059;-79
2022/01/18 00:36:39;;;;;;;45.22;5.07;;;;;;;;;;5087589;28;20055;-79
2022/01/18 00:39:07;;;;;;;78.63;8.30;;;;;;;;;;5072711;27;20055;-79
2022/01/18 00:41:33;;;;;;;62.63;6.13;;;;;;;;;;5098378;27;20396;-79
2022/01/18 00:43:59;;;;;;;63.67;6.18;;;;;;;;;;5078057;27;20091;-79
2022/01/18 00:46:25;;;;;;;55.55;4.90;;;;;;;;;;5098472;28;20043;-79
2022/01/18 00:48:57;;;;;;;53.95;6.13;;;;;;;;;;5099026;27;20132;-79
2022/01/18 00:51:23;;;;;;;64.03;5.68;;;;;;;;;;5099119;27;20046;-79
2022/01/18 00:53:49;;;;;;;56.22;5.63;;;;;;;;;;5103704;27;20043;-79
2022/01/18 00:56:21;;;;;;;62.10;7.45;;;;;;;;;;5095285;27;20035;-79
2022/01/18 00:58:48;;;;;;;90.22;7.32;;;;;;;;;;5097429;27;20041;-79
2022/01/18 01:01:15;;;;;;;63.05;6.13;;;;;;;;;;5102979;27;20039;-78
2022/01/18 01:03:41;;;;;;;81.00;7.35;;;;;;;;;;5099421;27;20448;-78
2022/01/18 01:06:08;;;;;;;59.83;6.65;;;;;;;;;;5079683;28;20081;-78
2022/01/18 01:08:34;;;;;;;75.10;6.72;;;;;;;;;;5097380;27;20092;-79
2022/01/18 01:11:01;;;;;;;69.45;7.13;;;;;;;;;;5093471;27;20091;-79
2022/01/18 01:13:29;;;;;;;60.50;6.00;;;;;;;;;;5098479;27;20046;-78
2022/01/18 01:45:28;;;;;;;56.70;6.07;;;;;;;;;;5096160;28;20357;-79
2022/01/18 01:47:55;;;;;;;49.63;6.88;;;;;;;;;;5098584;28;20039;-79
2022/01/18 01:50:23;;;;;;;66.05;7.82;;;;;;;;;;5101523;28;20047;-79
2022/01/18 01:52:51;;;;;;;45.35;6.20;;;;;;;;;;5092566;28;20036;-79
2022/01/18 01:55:18;;;;;;;63.03;6.00;;;;;;;;;;5096848;28;20045;-79
2022/01/18 01:57:44;;;;;;;53.13;7.25;;;;;;;;;;5093122;28;20035;-79
2022/01/18 02:00:13;;;;;;;58.75;6.95;;;;;;;;;;5098715;28;20043;-79
2022/01/18 02:02:39;;;;;;;56.75;6.78;;;;;;;;;;5092202;28;20043;-79
2022/01/18 02:05:06;;;;;;;47.25;5.60;;;;;;;;;;5079933;28;20051;-79
2022/01/18 02:07:32;;;;;;;50.88;5.75;;;;;;;;;;5098413;28;20042;-79
2022/01/18 02:09:58;;;;;;;51.45;6.13;;;;;;;;;;5092929;28;20040;-79
2022/01/18 02:12:24;;;;;;;49.08;5.90;;;;;;;;;;5093210;28;20122;-79
2022/01/18 02:14:58;;;;;;;48.10;7.30;;;;;;;;;;5081070;28;20043;-79
2022/01/18 02:22:55;;;;;;;49.28;5.32;;;;;;;;;;5100673;28;20463;-79
2022/01/18 02:25:22;;;;;;;54.33;6.85;;;;;;;;;;5095061;28;20311;-79
2022/01/18 02:27:48;;;;;;;47.47;6.05;;;;;;;;;;5093990;28;20043;-80
2022/01/18 02:30:14;;;;;;;51.20;9.27;;;;;;;;;;5096313;28;20043;-80
2022/01/18 02:32:40;;;;;;;58.25;10.27;;;;;;;;;;5080558;27;20105;-80
2022/01/18 02:35:06;;;;;;;52.08;8.07;;;;;;;;;;5084396;27;20400;-79
2022/01/18 02:37:33;;;;;;;41.78;5.75;;;;;;;;;;5095013;27;20074;-79
2022/01/18 02:39:59;;;;;;;37.45;4.88;;;;;;;;;;5083852;27;20578;-79
2022/01/18 02:42:29;;;;;;;43.33;6.32;;;;;;;;;;5104342;27;20050;-79
2022/01/18 02:44:56;;;;;;;31.17;4.57;;;;;;;;;;5088816;27;20597;-79
2022/01/18 02:47:23;;;;;;;27.65;4.15;;;;;;;;;;5102030;27;20555;-79
2022/01/18 02:49:49;;;;;;;38.35;4.60;;;;;;;;;;5097386;27;20499;-79
2022/01/18 02:52:16;;;;;;;29.70;4.47;;;;;;;;;;5104849;27;20340;-79
2022/01/18 02:54:43;;;;;;;30.98;4.18;;;;;;;;;;5121483;27;20519;-79
2022/01/18 02:57:15;;;;;;;35.67;4.75;;;;;;;;;;5085296;27;20039;-79
2022/01/18 02:59:51;;;;;;;29.50;4.18;;;;;;;;;;5102276;27;20046;-79
2022/01/18 03:05:08;;;;;;;27.88;6.40;;;;;;;;;;5096978;27;20088;-79
2022/01/18 03:07:34;;;;;;;28.63;5.78;;;;;;;;;;5083568;27;20055;-79
2022/01/18 03:10:00;;;;;;;28.38;6.05;;;;;;;;;;5097297;27;20711;-79
2022/01/18 03:12:26;;;;;;;28.65;4.88;;;;;;;;;;5087813;27;20055;-79
2022/01/18 03:14:52;;;;;;;28.83;5.45;;;;;;;;;;5095904;27;20179;-79
2022/01/18 03:17:18;;;;;;;22.35;4.28;;;;;;;;;;5095385;27;20038;-79
2022/01/18 03:19:44;;;;;;;29.17;5.40;;;;;;;;;;5095538;27;20035;-79
2022/01/18 03:22:11;;;;;;;30.83;5.57;;;;;;;;;;5102536;27;20086;-79
2022/01/18 03:30:20;;;;;;;25.53;4.17;;;;;;;;;;5101434;27;20126;-79
2022/01/18 03:32:46;;;;;;;28.52;3.80;;;;;;;;;;5081522;27;20683;-80
2022/01/18 03:35:12;;;;;;;22.52;2.88;;;;;;;;;;5102015;27;20127;-80
2022/01/18 03:37:39;;;;;;;23.05;3.08;;;;;;;;;;5104369;27;20031;-80
2022/01/18 03:40:06;;;;;;;27.23;2.70;;;;;;;;;;5085592;27;20123;-79
2022/01/18 03:42:40;;;;;;;31.55;4.03;;;;;;;;;;5099648;28;20461;-80
2022/01/18 03:45:07;;;;;;;33.25;4.85;;;;;;;;;;5083090;27;20155;-80
2022/01/18 03:47:34;;;;;;;26.50;3.85;;;;;;;;;;5086545;27;20126;-80
2022/01/18 03:50:00;;;;;;;19.83;3.95;;;;;;;;;;5103360;27;20038;-80
2022/01/18 03:52:28;;;;;;;28.55;3.10;;;;;;;;;;5089419;27;20066;-80
2022/01/18 03:54:54;;;;;;;19.73;3.08;;;;;;;;;;5089177;27;20135;-80
2022/01/18 03:57:20;;;;;;;27.77;3.20;;;;;;;;;;5088060;27;20324;-80
2022/01/18 03:59:46;;;;;;;20.92;3.20;;;;;;;;;;5098986;27;20455;-80
2022/01/18 04:02:13;;;;;;;24.45;2.88;;;;;;;;;;5101609;27;20458;-80
2022/01/18 04:04:39;;;;;;;18.13;2.70;;;;;;;;;;5104944;27;20103;-80
2022/01/18 04:07:06;;;;;;;26.15;2.67;;;;;;;;;;5101320;27;20396;-80
2022/01/18 04:09:32;;;;;;;24.42;3.58;;;;;;;;;;5097436;27;20348;-80
2022/01/18 04:11:58;;;;;;;31.95;3.78;;;;;;;;;;5094959;27;20122;-80
2022/01/18 04:14:24;;;;;;;31.75;3.22;;;;;;;;;;5099696;27;20488;-80
2022/01/18 04:27:31;;;;;;;53.53;6.50;;;;;;;;;;5102704;27;20134;-80
2022/01/18 04:29:57;;;;;;;41.90;6.38;;;;;;;;;;5092640;27;20043;-80
2022/01/18 04:32:23;;;;;;;105.75;21.95;;;;;;;;;;5079476;27;20043;-80
2022/01/18 04:34:49;;;;;;;571.60;85.40;;;;;;;;;;5097827;27;20039;-80
2022/01/18 04:37:15;;;;;;;34.25;4.40;;;;;;;;;;5103490;27;20045;-80
2022/01/18 04:39:43;;;;;;;27.90;2.97;;;;;;;;;;5092888;28;20147;-81
2022/01/18 04:42:18;;;;;;;27.83;4.18;;;;;;;;;;5074206;28;20039;-80
2022/01/18 04:50:14;;;;;;;30.58;3.75;;;;;;;;;;5094272;28;20477;-80
2022/01/18 04:52:40;;;;;;;26.60;3.53;;;;;;;;;;5088706;28;20473;-80
2022/01/18 04:55:06;;;;;;;27.27;2.97;;;;;;;;;;5103280;27;20039;-80
2022/01/18 04:57:52;;;;;;;24.88;2.78;;;;;;;;;;5071760;28;20100;-80
2022/01/18 05:00:18;;;;;;;;;;;5.50;7.80;;;;;;5097708;28;20386;-80
2022/01/18 05:02:49;;;;;;;26.60;3.45;;;;;;;;;;5097507;28;20006;-80
2022/01/18 05:05:23;;;;;;;803.40;73.32;;;;;;;;;;5098704;28;20492;-81
2022/01/18 05:07:52;;;;;;;31.45;5.97;;;;;;;;;;5076903;28;20095;-80
2022/01/18 05:10:20;;;;;;;30.02;3.22;;;;;;;;;;5083848;28;20043;-80
2022/01/18 05:12:49;;;;;;;12.55;1.50;;;;;;;;;;5069389;28;20047;-80
2022/01/18 05:23:16;;;;;;;31.92;4.78;;;;;;;;;;5094546;28;20048;-80
2022/01/18 05:25:45;;;;;;;21.95;3.35;;;;;;;;;;5075603;28;20044;-80
2022/01/18 05:28:12;;;;;;;22.80;2.35;;;;;;;;;;5078403;28;20472;-80
2022/01/18 05:30:38;;;;;;;24.85;3.47;;;;;;;;;;5091232;28;20051;-80
2022/01/18 05:33:04;;;;;;;10.90;1.48;;;;;;;;;;5095004;28;20047;-80
2022/01/18 05:35:30;;;;;;;29.98;3.50;;;;;;;;;;5073912;28;20427;-80
2022/01/18 05:37:56;;;;;;;32.55;3.67;;;;;;;;;;5071938;28;20591;-80
2022/01/18 05:40:23;;;;;;;26.13;4.10;;;;;;;;;;5077818;28;20035;-80
2022/01/18 05:42:49;;;;;;;22.85;2.70;;;;;;;;;;5096843;28;20409;-80
2022/01/18 05:45:15;;;;;;;37.20;3.92;;;;;;;;;;5091711;28;20108;-80
2022/01/18 05:47:42;;;;;;;35.40;3.53;;;5.10;1.00;;;;;;5088903;28;20040;-80
2022/01/18 05:50:09;;;;;;;20.75;2.63;;;;;;;;;;5076244;28;20105;-80
2022/01/18 05:52:36;;;;;;;22.83;3.72;;;;;;;;;;5091916;28;20040;-80
2022/01/18 05:55:02;;;;;;;27.05;3.05;;;;;;;;;;5096362;28;20480;-80
2022/01/18 05:57:28;;;;;;;45.40;6.85;;;;;;;;;;5091065;28;20036;-80
2022/01/18 06:00:01;;;;;;;39.58;6.82;;;;;;;;;;5097673;28;20050;-80
2022/01/18 06:02:47;;;;;;;98.90;17.73;;;;;;;;;;5099120;28;20040;-79
2022/01/18 06:07:58;;;;;;;81.40;14.93;;;;;;;;;;5091548;28;20047;-79
2022/01/18 06:10:24;;;;;;;60.83;10.68;;;;;;;;;;5080338;28;20103;-79
2022/01/18 06:12:51;;;;;;;63.22;10.05;;;;;;;;;;5100182;28;20040;-79
2022/01/18 06:15:17;;;;;;;96.00;16.73;;;;;;;;;;5097045;28;20054;-80
2022/01/18 06:17:44;;;;;;;151.20;30.20;;;;;;;;;;5094883;28;20032;-80
2022/01/18 06:20:10;;;;;;;121.97;21.13;;;;;;;;;;5103186;28;20039;-80
2022/01/18 06:22:37;;;;;;;47.90;8.85;;;;;;;;;;5099874;28;20028;-80
2022/01/18 06:25:03;;;;;;;134.52;24.20;;;;;;;;;;5095249;28;20048;-79
2022/01/18 06:27:29;;;;;;;27.33;5.22;;;;;;;;;;5090153;28;20617;-80
2022/01/18 06:29:55;;;;;;;44.03;3.47;;;;;;;;;;5092455;28;20044;-79
2022/01/18 06:32:22;;;;;;;25.85;3.10;;;5.40;99.90;;;;;;5097888;28;20273;-79
2022/01/18 06:34:48;;;;;;;33.03;3.80;;;;;;;;;;5094284;28;20044;-80
2022/01/18 06:37:14;;;;;;;46.03;5.50;;;;;;;;;;5098704;28;20499;-79
2022/01/18 06:39:40;;;;;;;36.53;4.03;;;;;;;;;;5079072;28;20047;-79
2022/01/18 06:42:07;;;;;;;62.22;6.38;;;;;;;;;;5082888;28;20031;-80
2022/01/18 06:44:33;;;;;;;169.27;20.23;;;;;;;;;;5097806;28;20101;-80
2022/01/18 06:46:59;;;;;;;171.23;18.80;;;;;;;;;;5099280;28;20046;-80
2022/01/18 06:49:25;;;;;;;138.20;12.30;;;;;;;;;;5096888;28;20044;-79
2022/01/18 06:51:51;;;;;;;224.10;16.55;;;;;;;;;;5081725;28;20040;-80
2022/01/18 06:54:18;;;;;;;236.98;17.00;;;;;;;;;;5106522;27;20036;-79
2022/01/18 06:56:49;;;;;;;160.90;15.05;;;4.90;99.90;;;;;;5082284;28;20473;-79
2022/01/18 06:59:16;;;;;;;305.65;24.35;;;;;;;;;;5091551;28;20113;-80
2022/01/18 07:01:42;;;;;;;231.23;17.73;;;;;;;;;;5097945;28;20127;-79
2022/01/18 07:04:08;;;;;;;218.60;18.90;;;;;;;;;;5083943;28;20036;-79
2022/01/18 07:06:35;;;;;;;194.15;16.15;;;;;;;;;;5100122;28;20043;-80
2022/01/18 07:09:02;;;;;;;518.45;52.35;;;;;;;;;;5094382;28;20084;-80
2022/01/18 07:11:28;;;;;;;179.60;16.20;;;;;;;;;;5093310;28;20044;-80
2022/01/18 07:13:54;;;;;;;94.70;9.73;;;;;;;;;;5100777;28;20074;-80
2022/01/18 07:16:20;;;;;;;168.45;13.88;;;;;;;;;;5095494;28;20483;-80
2022/01/18 07:18:46;;;;;;;1547.78;117.32;;;;;;;;;;5093634;28;20046;-80
2022/01/18 07:21:13;;;;;;;1101.35;104.38;;;;;;;;;;5098251;28;20059;-80
2022/01/18 07:23:40;;;;;;;356.60;22.52;;;;;;;;;;5094463;28;20112;-81
2022/01/18 07:26:06;;;;;;;413.08;28.77;;;;;;;;;;5091784;28;20043;-80
2022/01/18 07:28:32;;;;;;;385.50;23.60;;;;;;;;;;5110967;27;20036;-80
2022/01/18 07:30:59;;;;;;;369.17;24.63;;;;;;;;;;5089504;28;20040;-79
2022/01/18 07:33:25;;;;;;;119.43;13.55;;;;;;;;;;5103116;28;20047;-80
2022/01/18 07:35:51;;;;;;;73.03;6.93;;;;;;;;;;5097402;28;20389;-79
2022/01/18 07:38:18;;;;;;;58.70;4.18;;;;;;;;;;5095234;28;20063;-80
2022/01/18 07:40:46;;;;;;;20.52;1.45;;;;;;;;;;5093194;28;20556;-80
2022/01/18 07:43:15;;;;;;;34.67;2.00;;;;;;;;;;5095778;28;20143;-80
2022/01/18 07:45:42;;;;;;;30.40;3.45;;;;;;;;;;5100498;28;20479;-79
2022/01/18 07:48:09;;;;;;;41.25;3.08;;;;;;;;;;5095725;28;20054;-79
2022/01/18 07:50:35;;;;;;;47.85;4.90;;;;;;;;;;5096161;28;20043;-79
2022/01/18 07:53:01;;;;;;;41.38;3.80;;;;;;;;;;5081723;27;20132;-79
2022/01/18 07:55:27;;;;;;;65.13;6.00;;;;;;;;;;5097409;27;20044;-79
2022/01/18 07:57:56;;;;;;;83.90;7.28;;;;;;;;;;5094092;27;20038;-80
2022/01/18 08:00:22;;;;;;;12.48;2.10;;;;;;;;;;5093779;28;20212;-80
2022/01/18 08:02:49;;;;;;;20.42;1.65;;;;;;;;;;5099719;28;20054;-80
2022/01/18 08:05:15;;;;;;;63.70;5.30;;;;;;;;;;5094714;28;20437;-81
2022/01/18 08:07:42;;;;;;;18.17;1.65;;;;;;;;;;5083314;28;20051;-80
2022/01/18 08:10:08;;;;;;;28.17;2.55;;;;;;;;;;5073030;28;20162;-80
2022/01/18 08:12:34;;;;;;;4.30;0.60;;;;;;;;;;5068822;28;20083;-80
2022/01/18 08:15:11;;;;;;;22.27;2.03;;;;;;;;;;5088556;28;20484;-81
2022/01/18 08:17:37;;;;;;;28.77;1.92;;;;;;;;;;5076444;28;20047;-80
2022/01/18 08:20:04;;;;;;;1.17;0.85;;;;;;;;;;5094430;28;20434;-80
2022/01/18 08:22:30;;;;;;;56.45;3.08;;;;;;;;;;5090998;28;20036;-81
2022/01/18 08:24:56;;;;;;;21.00;1.27;;;;;;;;;;5069787;28;20250;-80
2022/01/18 08:27:22;;;;;;;13.50;0.95;;;;;;;;;;5093088;28;20455;-80
2022/01/18 08:29:48;;;;;;;3.72;0.55;;;;;;;;;;5076890;28;20093;-80
2022/01/18 08:32:15;;;;;;;18.20;1.75;;;;;;;;;;5089586;28;20043;-79
2022/01/18 08:34:41;;;;;;;26.23;1.55;;;;;;;;;;5078721;28;20145;-78
2022/01/18 08:37:07;;;;;;;6.70;1.00;;;;;;;;;;5080574;28;20039;-78
2022/01/18 08:39:33;;;;;;;85.60;4.43;;;;;;;;;;5100554;28;20055;-78
2022/01/18 08:41:59;;;;;;;75.93;5.10;;;;;;;;;;5093297;28;20089;-78
2022/01/18 08:44:26;;;;;;;9.00;1.95;;;;;;;;;;5090816;28;20130;-78
2022/01/18 08:46:52;;;;;;;26.20;3.15;;;;;;;;;;5075368;28;20127;-78
2022/01/18 08:49:19;;;;;;;36.80;3.63;;;;;;;;;;5094300;28;20039;-79
2022/01/18 08:51:45;;;;;;;46.58;3.70;;;;;;;;;;5094010;28;20071;-80
2022/01/18 08:54:12;;;;;;;6.70;1.08;;;;;;;;;;5101066;27;20084;-80
2022/01/18 08:56:38;;;;;;;18.77;1.73;;;;;;;;;;5070849;28;20071;-79
2022/01/18 08:59:04;;;;;;;9.52;1.48;;;;;;;;;;5078200;28;20043;-83
2022/01/18 09:01:30;;;;;;;47.35;4.15;;;;;;;;;;5070941;28;20073;-83
2022/01/18 09:03:56;;;;;;;2.63;1.23;;;;;;;;;;5100496;28;20841;-83
2022/01/18 09:06:24;;;;;;;7.68;0.98;;;;;;;;;;5074999;28;20109;-83
2022/01/18 09:08:57;;;;;;;30.65;2.70;;;;;;;;;;5071975;28;20181;-83
2022/01/18 09:11:24;;;;;;;10.05;1.05;;;;;;;;;;5092693;28;20035;-83
2022/01/18 09:13:54;;;;;;;13.63;1.40;;;;;;;;;;5091964;28;20126;-84
2022/01/18 09:16:20;;;;;;;12.45;1.40;;;;;;;;;;5100940;28;20059;-84
2022/01/18 09:18:47;;;;;;;16.02;1.80;;;;;;;;;;5086210;28;20055;-87
2022/01/18 09:21:14;;;;;;;18.40;1.27;;;;;;;;;;5093693;28;20036;-84
2022/01/18 09:23:42;;;;;;;20.77;2.30;;;;;;;;;;5093053;28;20071;-84
2022/01/18 09:26:08;;;;;;;11.55;1.35;;;;;;;;;;5069830;28;20063;-84
2022/01/18 09:28:34;;;;;;;2.35;0.60;;;;;;;;;;5095898;28;20117;-83
2022/01/18 09:31:00;;;;;;;7.75;1.35;;;;;;;;;;5071358;28;20089;-84
2022/01/18 09:33:26;;;;;;;5.03;1.63;;;;;;;;;;5077103;28;20101;-83
2022/01/18 09:35:52;;;;;;;1.73;1.08;;;;;;;;;;5092008;28;20043;-83
2022/01/18 09:38:19;;;;;;;19.80;2.13;;;;;;;;;;5095179;28;20073;-83
2022/01/18 09:40:46;;;;;;;21.02;2.03;;;;;;;;;;5074282;28;20493;-84
2022/01/18 09:43:14;;;;;;;2.38;1.30;;;;;;;;;;5080390;28;20047;-84
2022/01/18 09:45:45;;;;;;;2.03;0.95;;;;;;;;;;5076940;28;20097;-84
2022/01/18 09:48:13;;;;;;;10.60;1.83;;;;;;;;;;5081364;28;20055;-83
2022/01/18 09:50:40;;;;;;;4.15;1.45;;;;;;;;;;5079877;28;20511;-83
2022/01/18 09:53:08;;;;;;;12.05;2.20;;;;;;;;;;5080794;27;20040;-83
2022/01/18 09:55:35;;;;;;;29.52;3.08;;;;;;;;;;5086272;28;20066;-83
2022/01/18 09:58:04;;;;;;;4.20;1.60;;;;;;;;;;5100218;27;20517;-84
2022/01/18 10:00:31;;;;;;;4.40;1.40;;;;;;;;;;5082215;28;20082;-84
2022/01/18 10:02:58;;;;;;;15.07;2.10;;;;;;;;;;5081657;28;20074;-81
2022/01/18 10:05:29;;;;;;;2.60;1.23;;;;;;;;;;5078739;28;20126;-82
2022/01/18 10:08:01;;;;;;;6.38;2.58;;;;;;;;;;5103987;28;20452;-85
2022/01/18 10:10:38;;;;;;;6.80;1.27;;;;;;;;;;5092419;28;20036;-83
2022/01/18 10:13:04;;;;;;;8.27;2.00;;;;;;;;;;5100008;28;20051;-83
2022/01/18 10:15:31;;;;;;;10.30;2.22;;;;;;;;;;5095827;28;20050;-83
2022/01/18 10:18:07;;;;;;;3.30;1.00;;;;;;;;;;5083305;28;20032;-83
2022/01/18 10:20:48;;;;;;;8.35;2.05;;;;;;;;;;5094659;28;20036;-83
2022/01/18 10:23:24;;;;;;;4.72;1.90;;;;;;;;;;5072469;28;20069;-82
2022/01/18 10:25:50;;;;;;;6.95;2.65;;;;;;;;;;5085659;28;20117;-83
2022/01/18 10:28:35;;;;;;;4.93;2.20;;;;;;;;;;5084689;28;20044;-84
2022/01/18 10:31:06;;;;;;;10.45;2.45;;;;;;;;;;5103333;28;20047;-83
2022/01/18 10:33:46;;;;;;;7.82;1.58;;;;;;;;;;5098788;28;20056;-84
2022/01/18 10:36:14;;;;;;;4.88;2.13;;;;;;;;;;5097945;28;20043;-83
2022/01/18 10:38:44;;;;;;;3.45;1.70;;;;;;;;;;5076636;28;20097;-84
2022/01/18 10:41:30;;;;;;;23.40;4.20;;;;;;;;;;5095343;28;20043;-87
2022/01/18 10:44:07;;;;;;;4.25;2.40;;;;;;;;;;5081509;28;20501;-84
2022/01/18 10:46:35;;;;;;;6.03;2.65;;;;;;;;;;5108207;28;20023;-88
2022/01/18 10:49:02;;;;;;;11.35;2.65;;;;;;;;;;5089664;28;20088;-83
2022/01/18 10:51:29;;;;;;;10.23;2.70;;;;;;;;;;5073807;28;20047;-83
2022/01/18 10:54:06;;;;;;;4.85;1.60;;;;;;;;;;5084183;28;20031;-83
2022/01/18 10:56:47;;;;;;;8.75;2.28;;;;;;;;;;5096360;27;20050;-85
2022/01/18 10:59:21;;;;;;;4.53;2.28;;;;;;;;;;5075360;28;20046;-84
2022/01/18 11:02:04;;;;;;;4.88;2.17;;;5.70;1.00;;;;;;5097010;28;20637;-84
2022/01/18 11:04:30;;;;;;;4.65;1.73;;;;;;;;;;5078851;28;20036;-84
2022/01/18 11:07:01;;;;;;;10.35;3.20;;;;;;;;;;5075771;28;20070;-84
2022/01/18 11:09:27;;;;;;;17.17;3.58;;;;;;;;;;5096287;28;20587;-83
2022/01/18 11:11:54;;;;;;;6.07;2.25;;;;;;;;;;5081777;28;20042;-85
2022/01/18 11:14:22;;;;;;;7.47;1.65;;;;;;;;;;5082860;28;20515;-84
2022/01/18 11:16:49;;;;;;;8.00;2.17;;;;;;;;;;5079986;28;20115;-84
2022/01/18 11:21:54;;;;;;;15.43;4.00;;;5.60;1.00;;;;;;5099719;28;20048;-84
2022/01/18 11:24:21;;;;;;;3.95;2.22;;;5.50;1.00;;;;;;5075037;28;20130;-84
2022/01/18 11:26:49;;;;;;;5.88;2.05;;;5.60;1.00;;;;;;5079409;28;20036;-84
2022/01/18 11:29:18;;;;;;;10.77;3.15;;;;;;;;;;5097023;28;20044;-84
2022/01/18 11:31:49;;;;;;;10.38;2.95;;;;;;;;;;5078268;28;20092;-83
2022/01/18 11:34:33;;;;;;;4.10;2.00;;;;;;;;;;5082450;28;20047;-85
2022/01/18 11:37:17;;;;;;;8.05;2.88;;;;;;;;;;5092621;28;20084;-85
2022/01/18 11:39:43;;;;;;;15.98;2.35;;;;;;;;;;5079911;28;20048;-85
2022/01/18 11:42:12;;;;;;;3.67;1.63;;;;;;;;;;5092791;28;20080;-84
2022/01/18 11:44:39;;;;;;;5.88;2.22;;;;;;;;;;5078316;28;20039;-84
2022/01/18 11:47:06;;;;;;;4.80;2.13;;;;;;;;;;5097024;28;20082;-84
2022/01/18 11:49:34;;;;;;;5.97;1.85;;;;;;;;;;5080973;28;20145;-85
2022/01/18 11:52:06;;;;;;;12.63;3.58;;;5.60;1.00;;;;;;5090435;28;20090;-85
2022/01/18 11:54:36;;;;;;;11.73;3.40;;;;;;;;;;5094947;27;20126;-85
2022/01/18 11:57:21;;;;;;;11.32;2.92;;;;;;;;;;5098373;28;20500;-84
2022/01/18 11:59:49;;;;;;;16.70;3.53;;;;;;;;;;5095492;28;20043;-83
2022/01/18 12:02:47;;;;;;;6.35;3.40;;;;;;;;;;5094492;28;20036;-85
2022/01/18 12:05:16;;;;;;;11.02;3.85;;;;;;;;;;5082614;28;20066;-84
2022/01/18 12:07:44;;;;;;;4.75;2.72;;;;;;;;;;5099317;28;20104;-85
2022/01/18 12:10:38;;;;;;;13.90;3.85;;;;;;;;;;5073456;28;20055;-85
2022/01/18 12:13:05;;;;;;;11.18;4.13;;;;;;;;;;5071834;28;20036;-85
2022/01/18 12:15:38;;;;;;;6.10;2.63;;;;;;;;;;5078111;28;20128;-85
2022/01/18 12:18:12;;;;;;;9.52;3.78;;;;;;;;;;5090995;28;20711;-86
2022/01/18 12:20:42;;;;;;;10.52;3.45;;;;;;;;;;5097354;28;20489;-89
2022/01/18 12:23:08;;;;;;;7.03;4.20;;;;;;;;;;5073931;28;20040;-82
2022/01/18 12:25:54;;;;;;;8.02;3.88;;;;;;;;;;5091869;28;20039;-82
2022/01/18 12:28:45;;;;;;;8.93;3.90;;;;;;;;;;5079187;28;20126;-81
2022/01/18 12:31:40;;;;;;;11.20;4.43;;;;;;;;;;5081835;28;20051;-81
2022/01/18 12:34:28;;;;;;;12.63;4.30;;;;;;;;;;5074469;28;20071;-81
2022/01/18 12:37:06;;;;;;;14.48;5.00;;;;;;;;;;5077226;28;20035;-81
2022/01/18 12:39:52;;;;;;;11.07;3.72;;;;;;;;;;5091096;28;20425;-83
2022/01/18 12:45:00;;;;;;;14.48;5.20;;;;;;;;;;5089053;28;20150;-81
2022/01/18 12:47:26;;;;;;;12.32;4.95;;;;;;;;;;5071501;28;20043;-81
2022/01/18 12:49:53;;;;;;;8.57;4.63;;;5.50;1.00;;;;;;5082298;28;20424;-81
2022/01/18 12:52:19;;;;;;;8.88;4.72;;;;;;;;;;5079652;28;20031;-81
2022/01/18 12:54:49;;;;;;;11.25;4.15;;;;;;;;;;5102026;27;20431;-82
2022/01/18 12:57:17;;;;;;;9.93;4.10;;;;;;;;;;5097533;27;20046;-81
2022/01/18 13:00:04;;;;;;;10.82;4.70;;;;;;;;;;5077935;28;20707;-82
2022/01/18 13:02:30;;;;;;;14.55;4.68;;;;;;;;;;5078250;28;20039;-81
2022/01/18 13:04:57;;;;;;;9.50;4.07;;;;;;;;;;5079635;28;20047;-81
2022/01/18 13:07:24;;;;;;;20.98;5.35;;;;;;;;;;5094902;28;20409;-80
2022/01/18 13:09:54;;;;;;;10.15;4.18;;;;;;;;;;5075647;28;20047;-82
2022/01/18 13:12:34;;;;;;;12.00;4.55;;;;;;;;;;5102137;28;20080;-85
2022/01/18 13:15:03;;;;;;;9.05;3.25;;;;;;;;;;5090409;28;20039;-85
2022/01/18 13:23:52;;;;;;;13.05;5.43;;;;;;;;;;5093144;28;20442;-83
2022/01/18 13:26:28;;;;;;;11.90;5.57;;;;;;;;;;5091463;28;20048;-83
2022/01/18 13:28:54;;;;;;;10.30;4.43;;;;;;;;;;5091569;28;20076;-82
2022/01/18 13:31:22;;;;;;;11.95;5.45;;;;;;;;;;5097790;28;20035;-84
2022/01/18 13:33:57;;;;;;;15.73;5.30;;;;;;;;;;5081001;28;20104;-83
2022/01/18 13:36:23;;;;;;;18.60;6.70;;;;;;;;;;5097626;28;20575;-82
2022/01/18 13:38:50;;;;;;;12.27;5.18;;;;;;;;;;5091996;28;20429;-82
2022/01/18 13:41:19;;;;;;;11.05;6.28;;;;;;;;;;5092596;28;20127;-82
2022/01/18 13:43:47;;;;;;;13.48;6.20;;;;;;;;;;5077421;28;20221;-82
2022/01/18 13:46:26;;;;;;;13.15;6.78;;;;;;;;;;5087910;28;20047;-82
2022/01/18 13:49:13;;;;;;;12.65;5.30;;;5.10;99.90;;;;;;5094344;28;20040;-82
2022/01/18 13:51:39;;;;;;;19.42;5.82;;;;;;;;;;5097503;28;20135;-82
2022/01/18 13:54:08;;;;;;;13.82;6.97;;;;;;;;;;5075671;28;20488;-82
2022/01/18 13:56:35;;;;;;;17.88;7.38;;;;;;;;;;5081629;28;20159;-82
2022/01/18 13:59:03;;;;;;;14.90;7.05;;;;;;;;;;5096855;28;20044;-82
2022/01/18 14:01:41;;;;;;;13.95;6.45;;;;;;;;;;5097452;28;20097;-81
2022/01/18 14:04:15;;;;;;;16.95;7.60;;;;;;;;;;5074715;28;20504;-81
2022/01/18 14:06:42;;;;;;;24.13;8.15;;;;;;;;;;5093838;28;20512;-83
2022/01/18 14:09:09;;;;;;;18.95;9.40;;;;;;;;;;5084092;28;20040;-83
2022/01/18 14:11:36;;;;;;;15.30;5.68;;;;;;;;;;5091840;28;20031;-84
2022/01/18 14:14:26;;;;;;;13.98;6.90;;;4.80;99.90;;;;;;5094396;28;20040;-82
2022/01/18 14:16:53;;;;;;;12.10;6.82;;;;;;;;;;5095167;28;20047;-82
2022/01/18 14:19:26;;;;;;;15.35;5.95;;;;;;;;;;5094563;28;20443;-82
2022/01/18 14:21:52;;;;;;;15.98;7.45;;;;;;;;;;5086639;28;20098;-82
2022/01/18 14:24:18;;;;;;;19.50;8.80;;;;;;;;;;5088948;28;20048;-82
2022/01/18 14:26:54;;;;;;;18.48;7.18;;;;;;;;;;5092779;28;20084;-82
2022/01/18 14:29:20;;;;;;;14.00;7.20;;;;;;;;;;5094731;28;20052;-82
2022/01/18 14:32:00;;;;;;;15.73;6.07;;;;;;;;;;5081147;28;20405;-82
2022/01/18 14:34:34;;;;;;;12.57;5.70;;;;;;;;;;5098496;28;20043;-82
2022/01/18 14:37:01;;;;;;;9.00;4.53;;;;;;;;;;5096227;28;20488;-82
2022/01/18 14:39:27;;;;;;;23.52;5.70;;;;;;;;;;5092504;28;20154;-83
2022/01/18 14:42:00;;;;;;;10.25;4.47;;;;;;;;;;5091803;28;20073;-82
2022/01/18 14:44:58;;;;;;;8.13;4.47;;;;;;;;;;5098353;28;20093;-82
2022/01/18 14:47:28;;;;;;;7.97;4.22;;;;;;;;;;5096276;28;20134;-83
2022/01/18 14:50:13;;;;;;;7.85;4.63;;;;;;;;;;5069929;28;20096;-81
2022/01/18 14:52:39;;;;;;;;;;;;;;;;;;5079686;28;20139;-82
2022/01/18 14:55:06;;;;;;;15.52;4.07;;;;;;;;;;5096198;27;19930;-82
2022/01/18 14:57:33;;;;;;;69.57;9.52;;;;;;;;;;5108488;27;20446;-82
2022/01/18 15:00:01;;;;;;;26.27;6.35;;;;;;;;;;5081141;28;20045;-82
2022/01/18 15:02:27;;;;;;;31.70;6.10;;;;;;;;;;5094390;28;20044;-82
2022/01/18 15:04:54;;;;;;;9.15;4.22;;;;;;;;;;5095674;28;20039;-84
2022/01/18 15:07:20;;;;;;;13.13;4.55;;;;;;;;;;5095544;28;20040;-83
2022/01/18 15:09:46;;;;;;;43.65;7.07;;;;;;;;;;5097977;28;20074;-83
2022/01/18 15:12:12;;;;;;;13.73;4.38;;;;;;;;;;5083372;28;20468;-83
2022/01/18 15:14:38;;;;;;;42.38;7.25;;;;;;;;;;5093147;28;20054;-83
2022/01/18 15:17:04;;;;;;;15.93;4.45;;;;;;;;;;5080849;28;20032;-82
2022/01/18 15:19:31;;;;;;;12.55;5.03;;;;;;;;;;5095149;28;20035;-82
2022/01/18 15:21:57;;;;;;;18.45;5.25;;;;;;;;;;5082367;28;20039;-83
2022/01/18 15:24:23;;;;;;;37.92;6.95;;;;;;;;;;5094435;28;20097;-83
2022/01/18 15:26:49;;;;;;;53.88;8.32;;;;;;;;;;5082228;28;20439;-82
2022/01/18 15:29:16;;;;;;;43.75;8.75;;;;;;;;;;5092180;28;20498;-82
2022/01/18 15:31:42;;;;;;;8.27;4.78;;;;;;;;;;5099068;28;20052;-82
2022/01/18 15:34:08;;;;;;;14.95;5.57;;;;;;;;;;5078084;28;20036;-82
2022/01/18 15:36:35;;;;;;;24.52;7.28;;;;;;;;;;5077866;28;20075;-82
2022/01/18 15:39:01;;;;;;;28.45;8.57;;;;;;;;;;5096073;28;20067;-82
2022/01/18 15:41:27;;;;;;;24.08;6.65;;;;;;;;;;5096342;28;20050;-82
2022/01/18 15:43:53;;;;;;;13.65;7.57;;;;;;;;;;5093540;28;20574;-82
2022/01/18 15:46:19;;;;;;;33.25;7.65;;;;;;;;;;5077031;28;20134;-82
2022/01/18 15:48:47;;;;;;;40.25;9.95;;;;;;;;;;5095784;28;20036;-82
2022/01/18 15:51:13;;;;;;;53.50;12.55;;;;;;;;;;5081566;28;20044;-82
2022/01/18 15:53:40;;;;;;;112.00;18.67;;;;;;;;;;5100195;27;20205;-82
2022/01/18 15:56:06;;;;;;;41.63;12.00;;;;;;;;;;5095075;28;20130;-82
2022/01/18 15:58:33;;;;;;;43.45;9.05;;;;;;;;;;5098263;28;20035;-82
2022/01/18 16:00:59;;;;;;;18.60;10.40;;;;;;;;;;5071641;28;20032;-82
2022/01/18 16:03:26;;;;;;;22.50;10.50;;;;;;;;;;5100048;28;20530;-82